sensor_id;sensor_type;location;lat;lon;timestamp;P1;durP1;ratioP1;P2;durP2;ratioP2
20482;SDS011;10400;53.198;6.592;2022-07-25T00:02:24;3.35;;;2.75;;
20482;SDS011;10400;53.198;6.592;2022-07-25T00:04:50;2.50;;;2.20;;
20482;SDS011;10400;53.198;6.592;2022-07-25T00:07:16;3.67;;;2.25;;
20482;SDS011;10400;53.198;6.592;2022-07-25T00:09:41;4.53;;;2.33;;
20482;SDS011;10400;53.198;6.592;2022-07-25T00:12:07;3.50;;;2.20;;
20482;SDS011;10400;53.198;6.592;2022-07-25T00:14:33;5.63;;;2.42;;
20482;SDS011;10400;53.198;6.592;2022-07-25T00:16:58;2.40;;;2.10;;
20482;SDS011;10400;53.198;6.592;2022-07-25T00:19:24;3.40;;;2.33;;
20482;SDS011;10400;53.198;6.592;2022-07-25T00:21:50;4.15;;;2.05;;
20482;SDS011;10400;53.198;6.592;2022-07-25T00:24:15;3.67;;;2.63;;
20482;SDS011;10400;53.198;6.592;2022-07-25T00:26:42;3.90;;;2.53;;
20482;SDS011;10400;53.198;6.592;2022-07-25T00:29:08;2.92;;;2.20;;
20482;SDS011;10400;53.198;6.592;2022-07-25T00:31:33;2.72;;;2.30;;
20482;SDS011;10400;53.198;6.592;2022-07-25T00:33:59;5.82;;;2.65;;
20482;SDS011;10400;53.198;6.592;2022-07-25T00:36:25;2.35;;;2.00;;
20482;SDS011;10400;53.198;6.592;2022-07-25T00:38:50;2.50;;;2.30;;
20482;SDS011;10400;53.198;6.592;2022-07-25T00:41:16;3.10;;;2.28;;
20482;SDS011;10400;53.198;6.592;2022-07-25T00:43:42;3.50;;;2.80;;
20482;SDS011;10400;53.198;6.592;2022-07-25T00:46:11;4.38;;;2.58;;
20482;SDS011;10400;53.198;6.592;2022-07-25T00:48:40;3.92;;;2.25;;
20482;SDS011;10400;53.198;6.592;2022-07-25T00:51:15;2.85;;;2.65;;
20482;SDS011;10400;53.198;6.592;2022-07-25T00:53:41;5.35;;;2.72;;
20482;SDS011;10400;53.198;6.592;2022-07-25T00:56:06;3.33;;;3.03;;
20482;SDS011;10400;53.198;6.592;2022-07-25T00:58:32;5.55;;;2.90;;
20482;SDS011;10400;53.198;6.592;2022-07-25T01:00:59;3.47;;;2.95;;
20482;SDS011;10400;53.198;6.592;2022-07-25T01:03:25;3.92;;;3.17;;
20482;SDS011;10400;53.198;6.592;2022-07-25T01:05:51;4.40;;;3.15;;
20482;SDS011;10400;53.198;6.592;2022-07-25T01:08:17;5.28;;;3.20;;
20482;SDS011;10400;53.198;6.592;2022-07-25T01:10:44;4.63;;;3.55;;
20482;SDS011;10400;53.198;6.592;2022-07-25T01:13:11;3.75;;;3.42;;
20482;SDS011;10400;53.198;6.592;2022-07-25T01:15:37;4.35;;;3.10;;
20482;SDS011;10400;53.198;6.592;2022-07-25T01:18:03;3.70;;;3.15;;
20482;SDS011;10400;53.198;6.592;2022-07-25T01:20:29;3.15;;;2.85;;
20482;SDS011;10400;53.198;6.592;2022-07-25T01:22:56;3.78;;;3.22;;
20482;SDS011;10400;53.198;6.592;2022-07-25T01:25:22;4.65;;;3.67;;
20482;SDS011;10400;53.198;6.592;2022-07-25T01:27:48;5.57;;;3.33;;
20482;SDS011;10400;53.198;6.592;2022-07-25T01:30:15;3.92;;;2.90;;
20482;SDS011;10400;53.198;6.592;2022-07-25T01:32:42;4.10;;;3.42;;
20482;SDS011;10400;53.198;6.592;2022-07-25T01:35:09;4.63;;;3.17;;
20482;SDS011;10400;53.198;6.592;2022-07-25T01:37:35;4.82;;;3.30;;
20482;SDS011;10400;53.198;6.592;2022-07-25T01:40:01;4.32;;;3.00;;
20482;SDS011;10400;53.198;6.592;2022-07-25T01:42:28;4.95;;;3.58;;
20482;SDS011;10400;53.198;6.592;2022-07-25T01:44:54;5.25;;;3.50;;
20482;SDS011;10400;53.198;6.592;2022-07-25T01:47:20;5.25;;;3.63;;
20482;SDS011;10400;53.198;6.592;2022-07-25T01:49:45;5.97;;;3.50;;
20482;SDS011;10400;53.198;6.592;2022-07-25T01:52:11;4.93;;;3.30;;
20482;SDS011;10400;53.198;6.592;2022-07-25T01:54:38;5.63;;;4.10;;
20482;SDS011;10400;53.198;6.592;2022-07-25T01:57:04;4.13;;;3.60;;
20482;SDS011;10400;53.198;6.592;2022-07-25T01:59:31;4.47;;;3.78;;
20482;SDS011;10400;53.198;6.592;2022-07-25T02:01:56;5.32;;;3.80;;
20482;SDS011;10400;53.198;6.592;2022-07-25T02:04:22;8.13;;;4.15;;
20482;SDS011;10400;53.198;6.592;2022-07-25T02:06:48;5.05;;;4.10;;
20482;SDS011;10400;53.198;6.592;2022-07-25T02:09:14;9.60;;;4.80;;
20482;SDS011;10400;53.198;6.592;2022-07-25T02:11:40;6.80;;;5.15;;
20482;SDS011;10400;53.198;6.592;2022-07-25T02:14:05;7.35;;;5.20;;
20482;SDS011;10400;53.198;6.592;2022-07-25T02:16:31;7.95;;;5.15;;
20482;SDS011;10400;53.198;6.592;2022-07-25T02:18:57;4.70;;;4.00;;
20482;SDS011;10400;53.198;6.592;2022-07-25T02:21:23;7.53;;;4.60;;
20482;SDS011;10400;53.198;6.592;2022-07-25T02:23:48;8.27;;;5.45;;
20482;SDS011;10400;53.198;6.592;2022-07-25T02:26:14;5.95;;;4.90;;
20482;SDS011;10400;53.198;6.592;2022-07-25T02:28:40;8.45;;;5.55;;
20482;SDS011;10400;53.198;6.592;2022-07-25T02:31:06;7.38;;;5.88;;
20482;SDS011;10400;53.198;6.592;2022-07-25T02:33:32;8.35;;;6.50;;
20482;SDS011;10400;53.198;6.592;2022-07-25T02:35:57;10.30;;;6.32;;
20482;SDS011;10400;53.198;6.592;2022-07-25T02:38:23;8.48;;;5.90;;
20482;SDS011;10400;53.198;6.592;2022-07-25T02:40:49;5.93;;;5.32;;
20482;SDS011;10400;53.198;6.592;2022-07-25T02:43:16;6.93;;;5.20;;
20482;SDS011;10400;53.198;6.592;2022-07-25T02:45:43;7.72;;;5.97;;
20482;SDS011;10400;53.198;6.592;2022-07-25T02:48:09;8.52;;;5.47;;
20482;SDS011;10400;53.198;6.592;2022-07-25T02:50:35;8.48;;;5.80;;
20482;SDS011;10400;53.198;6.592;2022-07-25T02:53:01;8.95;;;5.72;;
20482;SDS011;10400;53.198;6.592;2022-07-25T02:55:27;6.85;;;5.20;;
20482;SDS011;10400;53.198;6.592;2022-07-25T02:57:53;7.65;;;5.70;;
20482;SDS011;10400;53.198;6.592;2022-07-25T03:00:18;7.18;;;5.43;;
20482;SDS011;10400;53.198;6.592;2022-07-25T03:02:44;8.65;;;6.13;;
20482;SDS011;10400;53.198;6.592;2022-07-25T03:05:11;6.85;;;6.15;;
20482;SDS011;10400;53.198;6.592;2022-07-25T03:07:38;6.03;;;5.43;;
20482;SDS011;10400;53.198;6.592;2022-07-25T03:10:05;7.60;;;5.88;;
20482;SDS011;10400;53.198;6.592;2022-07-25T03:12:32;6.25;;;5.32;;
20482;SDS011;10400;53.198;6.592;2022-07-25T03:14:58;8.35;;;5.68;;
20482;SDS011;10400;53.198;6.592;2022-07-25T03:17:25;8.43;;;5.30;;
20482;SDS011;10400;53.198;6.592;2022-07-25T03:19:52;6.60;;;5.25;;
20482;SDS011;10400;53.198;6.592;2022-07-25T03:22:18;6.90;;;5.32;;
20482;SDS011;10400;53.198;6.592;2022-07-25T03:24:44;8.75;;;5.85;;
20482;SDS011;10400;53.198;6.592;2022-07-25T03:27:10;10.07;;;5.88;;
20482;SDS011;10400;53.198;6.592;2022-07-25T03:29:36;9.27;;;5.55;;
20482;SDS011;10400;53.198;6.592;2022-07-25T03:32:01;7.78;;;5.25;;
20482;SDS011;10400;53.198;6.592;2022-07-25T03:34:28;7.30;;;5.63;;
20482;SDS011;10400;53.198;6.592;2022-07-25T03:36:54;6.45;;;5.30;;
20482;SDS011;10400;53.198;6.592;2022-07-25T03:39:20;7.88;;;5.65;;
20482;SDS011;10400;53.198;6.592;2022-07-25T03:41:46;11.75;;;5.95;;
20482;SDS011;10400;53.198;6.592;2022-07-25T03:44:12;6.18;;;5.38;;
20482;SDS011;10400;53.198;6.592;2022-07-25T03:46:37;7.28;;;5.22;;
20482;SDS011;10400;53.198;6.592;2022-07-25T03:49:03;7.43;;;5.25;;
20482;SDS011;10400;53.198;6.592;2022-07-25T03:51:29;6.50;;;5.40;;
20482;SDS011;10400;53.198;6.592;2022-07-25T03:53:55;9.15;;;5.78;;
20482;SDS011;10400;53.198;6.592;2022-07-25T03:56:37;6.15;;;5.55;;
20482;SDS011;10400;53.198;6.592;2022-07-25T03:59:05;7.80;;;6.18;;
20482;SDS011;10400;53.198;6.592;2022-07-25T04:01:31;9.50;;;6.35;;
20482;SDS011;10400;53.198;6.592;2022-07-25T04:03:57;7.97;;;6.20;;
20482;SDS011;10400;53.198;6.592;2022-07-25T04:06:23;8.50;;;6.60;;
20482;SDS011;10400;53.198;6.592;2022-07-25T04:08:50;6.57;;;5.93;;
20482;SDS011;10400;53.198;6.592;2022-07-25T04:11:16;8.18;;;6.20;;
20482;SDS011;10400;53.198;6.592;2022-07-25T04:13:41;10.15;;;6.20;;
20482;SDS011;10400;53.198;6.592;2022-07-25T04:16:07;8.18;;;6.80;;
20482;SDS011;10400;53.198;6.592;2022-07-25T04:18:33;7.10;;;6.15;;
20482;SDS011;10400;53.198;6.592;2022-07-25T04:20:59;9.38;;;6.68;;
20482;SDS011;10400;53.198;6.592;2022-07-25T04:23:26;8.48;;;6.93;;
20482;SDS011;10400;53.198;6.592;2022-07-25T04:25:52;9.15;;;6.20;;
20482;SDS011;10400;53.198;6.592;2022-07-25T04:28:19;9.57;;;6.97;;
20482;SDS011;10400;53.198;6.592;2022-07-25T04:30:44;7.78;;;6.57;;
20482;SDS011;10400;53.198;6.592;2022-07-25T04:33:11;9.70;;;6.70;;
20482;SDS011;10400;53.198;6.592;2022-07-25T04:35:37;8.45;;;6.80;;
20482;SDS011;10400;53.198;6.592;2022-07-25T04:38:03;7.22;;;6.28;;
20482;SDS011;10400;53.198;6.592;2022-07-25T04:40:29;13.63;;;7.03;;
20482;SDS011;10400;53.198;6.592;2022-07-25T04:42:55;8.80;;;6.45;;
20482;SDS011;10400;53.198;6.592;2022-07-25T04:45:21;9.35;;;7.25;;
20482;SDS011;10400;53.198;6.592;2022-07-25T04:47:47;10.57;;;6.93;;
20482;SDS011;10400;53.198;6.592;2022-07-25T04:50:13;9.57;;;7.00;;
20482;SDS011;10400;53.198;6.592;2022-07-25T04:52:39;8.88;;;7.15;;
20482;SDS011;10400;53.198;6.592;2022-07-25T04:55:05;10.32;;;8.00;;
20482;SDS011;10400;53.198;6.592;2022-07-25T04:57:31;10.38;;;6.40;;
20482;SDS011;10400;53.198;6.592;2022-07-25T04:59:57;8.32;;;6.75;;
20482;SDS011;10400;53.198;6.592;2022-07-25T05:02:23;9.38;;;7.47;;
20482;SDS011;10400;53.198;6.592;2022-07-25T05:04:49;9.10;;;7.18;;
20482;SDS011;10400;53.198;6.592;2022-07-25T05:07:15;11.20;;;7.50;;
20482;SDS011;10400;53.198;6.592;2022-07-25T05:09:40;8.07;;;7.22;;
20482;SDS011;10400;53.198;6.592;2022-07-25T05:12:14;11.13;;;7.20;;
20482;SDS011;10400;53.198;6.592;2022-07-25T05:14:40;8.70;;;7.35;;
20482;SDS011;10400;53.198;6.592;2022-07-25T05:17:06;9.55;;;8.00;;
20482;SDS011;10400;53.198;6.592;2022-07-25T05:19:31;12.93;;;8.00;;
20482;SDS011;10400;53.198;6.592;2022-07-25T05:21:57;11.32;;;7.90;;
20482;SDS011;10400;53.198;6.592;2022-07-25T05:24:23;10.82;;;7.78;;
20482;SDS011;10400;53.198;6.592;2022-07-25T05:26:49;11.38;;;8.30;;
20482;SDS011;10400;53.198;6.592;2022-07-25T05:29:14;10.10;;;8.18;;
20482;SDS011;10400;53.198;6.592;2022-07-25T05:31:40;13.32;;;8.05;;
20482;SDS011;10400;53.198;6.592;2022-07-25T05:34:06;11.82;;;8.43;;
20482;SDS011;10400;53.198;6.592;2022-07-25T05:36:32;14.07;;;7.93;;
20482;SDS011;10400;53.198;6.592;2022-07-25T05:38:58;12.93;;;8.75;;
20482;SDS011;10400;53.198;6.592;2022-07-25T05:41:24;14.15;;;8.43;;
20482;SDS011;10400;53.198;6.592;2022-07-25T05:43:50;10.13;;;9.10;;
20482;SDS011;10400;53.198;6.592;2022-07-25T05:46:16;10.18;;;8.80;;
20482;SDS011;10400;53.198;6.592;2022-07-25T05:48:42;12.80;;;9.15;;
20482;SDS011;10400;53.198;6.592;2022-07-25T05:51:08;10.75;;;8.93;;
20482;SDS011;10400;53.198;6.592;2022-07-25T05:53:34;15.05;;;9.15;;
20482;SDS011;10400;53.198;6.592;2022-07-25T05:56:00;14.15;;;9.05;;
20482;SDS011;10400;53.198;6.592;2022-07-25T05:58:26;11.80;;;9.20;;
20482;SDS011;10400;53.198;6.592;2022-07-25T06:00:51;14.60;;;9.60;;
20482;SDS011;10400;53.198;6.592;2022-07-25T06:03:17;12.57;;;10.35;;
20482;SDS011;10400;53.198;6.592;2022-07-25T06:05:44;14.57;;;10.40;;
20482;SDS011;10400;53.198;6.592;2022-07-25T06:08:10;13.52;;;10.82;;
20482;SDS011;10400;53.198;6.592;2022-07-25T06:10:37;12.20;;;9.95;;
20482;SDS011;10400;53.198;6.592;2022-07-25T06:13:03;15.00;;;10.20;;
20482;SDS011;10400;53.198;6.592;2022-07-25T06:15:29;18.55;;;10.25;;
20482;SDS011;10400;53.198;6.592;2022-07-25T06:17:54;12.40;;;10.23;;
20482;SDS011;10400;53.198;6.592;2022-07-25T06:20:20;17.38;;;10.95;;
20482;SDS011;10400;53.198;6.592;2022-07-25T06:22:47;13.85;;;10.13;;
20482;SDS011;10400;53.198;6.592;2022-07-25T06:25:12;15.40;;;10.50;;
20482;SDS011;10400;53.198;6.592;2022-07-25T06:27:38;16.58;;;10.70;;
20482;SDS011;10400;53.198;6.592;2022-07-25T06:30:05;15.23;;;10.80;;
20482;SDS011;10400;53.198;6.592;2022-07-25T06:32:32;14.15;;;10.65;;
20482;SDS011;10400;53.198;6.592;2022-07-25T06:34:58;14.02;;;10.18;;
20482;SDS011;10400;53.198;6.592;2022-07-25T06:37:23;13.63;;;10.45;;
20482;SDS011;10400;53.198;6.592;2022-07-25T06:39:49;13.85;;;9.85;;
20482;SDS011;10400;53.198;6.592;2022-07-25T06:42:15;14.27;;;9.85;;
20482;SDS011;10400;53.198;6.592;2022-07-25T06:44:41;14.60;;;10.82;;
20482;SDS011;10400;53.198;6.592;2022-07-25T06:47:07;11.30;;;9.63;;
20482;SDS011;10400;53.198;6.592;2022-07-25T06:49:39;14.63;;;10.52;;
20482;SDS011;10400;53.198;6.592;2022-07-25T06:52:06;12.30;;;9.82;;
20482;SDS011;10400;53.198;6.592;2022-07-25T06:54:31;10.55;;;9.30;;
20482;SDS011;10400;53.198;6.592;2022-07-25T06:56:57;13.00;;;10.00;;
20482;SDS011;10400;53.198;6.592;2022-07-25T06:59:23;13.13;;;9.70;;
20482;SDS011;10400;53.198;6.592;2022-07-25T07:01:49;13.82;;;9.40;;
20482;SDS011;10400;53.198;6.592;2022-07-25T07:04:14;12.50;;;9.73;;
20482;SDS011;10400;53.198;6.592;2022-07-25T07:06:40;11.38;;;9.18;;
20482;SDS011;10400;53.198;6.592;2022-07-25T07:09:06;34.83;;;13.60;;
20482;SDS011;10400;53.198;6.592;2022-07-25T07:11:32;12.20;;;9.10;;
20482;SDS011;10400;53.198;6.592;2022-07-25T07:13:58;16.23;;;9.93;;
20482;SDS011;10400;53.198;6.592;2022-07-25T07:16:27;11.90;;;9.57;;
20482;SDS011;10400;53.198;6.592;2022-07-25T07:18:53;12.27;;;9.27;;
20482;SDS011;10400;53.198;6.592;2022-07-25T07:21:18;13.00;;;8.85;;
20482;SDS011;10400;53.198;6.592;2022-07-25T07:23:44;11.57;;;8.70;;
20482;SDS011;10400;53.198;6.592;2022-07-25T07:26:09;15.18;;;10.05;;
20482;SDS011;10400;53.198;6.592;2022-07-25T07:28:35;10.68;;;8.85;;
20482;SDS011;10400;53.198;6.592;2022-07-25T07:31:01;14.77;;;9.57;;
20482;SDS011;10400;53.198;6.592;2022-07-25T07:33:26;14.75;;;9.52;;
20482;SDS011;10400;53.198;6.592;2022-07-25T07:35:52;15.70;;;9.63;;
20482;SDS011;10400;53.198;6.592;2022-07-25T07:38:20;11.57;;;9.60;;
20482;SDS011;10400;53.198;6.592;2022-07-25T07:40:47;11.00;;;8.80;;
20482;SDS011;10400;53.198;6.592;2022-07-25T07:43:12;12.23;;;8.90;;
20482;SDS011;10400;53.198;6.592;2022-07-25T07:45:38;10.82;;;8.55;;
20482;SDS011;10400;53.198;6.592;2022-07-25T07:48:04;11.48;;;8.13;;
20482;SDS011;10400;53.198;6.592;2022-07-25T07:50:31;12.73;;;8.02;;
20482;SDS011;10400;53.198;6.592;2022-07-25T07:52:56;9.43;;;7.40;;
20482;SDS011;10400;53.198;6.592;2022-07-25T07:55:22;8.93;;;7.43;;
20482;SDS011;10400;53.198;6.592;2022-07-25T07:58:07;11.77;;;7.90;;
20482;SDS011;10400;53.198;6.592;2022-07-25T08:00:33;10.82;;;7.18;;
20482;SDS011;10400;53.198;6.592;2022-07-25T08:03:00;10.52;;;6.85;;
20482;SDS011;10400;53.198;6.592;2022-07-25T08:05:30;10.55;;;6.70;;
20482;SDS011;10400;53.198;6.592;2022-07-25T08:07:59;10.65;;;6.97;;
20482;SDS011;10400;53.198;6.592;2022-07-25T08:10:26;12.93;;;7.65;;
20482;SDS011;10400;53.198;6.592;2022-07-25T08:12:54;12.35;;;7.65;;
20482;SDS011;10400;53.198;6.592;2022-07-25T08:15:20;9.60;;;6.57;;
20482;SDS011;10400;53.198;6.592;2022-07-25T08:17:47;7.88;;;6.40;;
20482;SDS011;10400;53.198;6.592;2022-07-25T08:20:14;9.77;;;6.20;;
20482;SDS011;10400;53.198;6.592;2022-07-25T08:22:42;8.55;;;6.80;;
20482;SDS011;10400;53.198;6.592;2022-07-25T08:25:09;10.05;;;6.22;;
20482;SDS011;10400;53.198;6.592;2022-07-25T08:27:38;9.27;;;6.30;;
20482;SDS011;10400;53.198;6.592;2022-07-25T08:30:04;8.35;;;5.95;;
20482;SDS011;10400;53.198;6.592;2022-07-25T08:32:32;7.85;;;5.47;;
20482;SDS011;10400;53.198;6.592;2022-07-25T08:34:58;10.13;;;6.88;;
20482;SDS011;10400;53.198;6.592;2022-07-25T08:37:26;11.07;;;5.82;;
20482;SDS011;10400;53.198;6.592;2022-07-25T08:39:52;10.10;;;5.88;;
20482;SDS011;10400;53.198;6.592;2022-07-25T08:42:18;8.38;;;6.35;;
20482;SDS011;10400;53.198;6.592;2022-07-25T08:44:48;7.03;;;5.95;;
20482;SDS011;10400;53.198;6.592;2022-07-25T08:47:20;8.38;;;6.35;;
20482;SDS011;10400;53.198;6.592;2022-07-25T08:49:47;8.35;;;5.68;;
20482;SDS011;10400;53.198;6.592;2022-07-25T08:52:13;9.13;;;5.70;;
20482;SDS011;10400;53.198;6.592;2022-07-25T08:54:39;10.50;;;5.60;;
20482;SDS011;10400;53.198;6.592;2022-07-25T08:57:05;7.82;;;5.68;;
20482;SDS011;10400;53.198;6.592;2022-07-25T08:59:31;6.93;;;5.35;;
20482;SDS011;10400;53.198;6.592;2022-07-25T09:01:57;10.27;;;5.70;;
20482;SDS011;10400;53.198;6.592;2022-07-25T09:04:26;7.10;;;5.28;;
20482;SDS011;10400;53.198;6.592;2022-07-25T09:06:56;7.80;;;5.22;;
20482;SDS011;10400;53.198;6.592;2022-07-25T09:09:56;7.25;;;4.78;;
20482;SDS011;10400;53.198;6.592;2022-07-25T09:12:15;12.13;;;5.30;;
20482;SDS011;10400;53.198;6.592;2022-07-25T09:14:41;7.57;;;4.90;;
20482;SDS011;10400;53.198;6.592;2022-07-25T09:17:07;6.85;;;4.20;;
20482;SDS011;10400;53.198;6.592;2022-07-25T09:19:33;6.95;;;4.10;;
20482;SDS011;10400;53.198;6.592;2022-07-25T09:22:00;4.88;;;4.07;;
20482;SDS011;10400;53.198;6.592;2022-07-25T09:24:29;11.20;;;3.40;;
20482;SDS011;10400;53.198;6.592;2022-07-25T09:26:56;5.15;;;3.13;;
20482;SDS011;10400;53.198;6.592;2022-07-25T09:29:28;7.45;;;3.08;;
20482;SDS011;10400;53.198;6.592;2022-07-25T09:31:58;3.28;;;2.80;;
20482;SDS011;10400;53.198;6.592;2022-07-25T09:36:58;6.13;;;2.50;;
20482;SDS011;10400;53.198;6.592;2022-07-25T09:39:45;4.15;;;2.17;;
20482;SDS011;10400;53.198;6.592;2022-07-25T09:44:42;4.45;;;2.08;;
20482;SDS011;10400;53.198;6.592;2022-07-25T09:47:12;7.22;;;2.17;;
20482;SDS011;10400;53.198;6.592;2022-07-25T09:49:42;5.95;;;1.98;;
20482;SDS011;10400;53.198;6.592;2022-07-25T09:52:09;4.18;;;1.98;;
20482;SDS011;10400;53.198;6.592;2022-07-25T09:54:39;3.55;;;1.90;;
20482;SDS011;10400;53.198;6.592;2022-07-25T09:57:05;3.10;;;1.67;;
20482;SDS011;10400;53.198;6.592;2022-07-25T09:59:34;3.85;;;1.77;;
20482;SDS011;10400;53.198;6.592;2022-07-25T10:07:08;5.13;;;1.58;;
20482;SDS011;10400;53.198;6.592;2022-07-25T10:09:42;2.78;;;1.58;;
20482;SDS011;10400;53.198;6.592;2022-07-25T10:12:10;5.75;;;1.70;;
20482;SDS011;10400;53.198;6.592;2022-07-25T10:14:38;5.05;;;1.35;;
20482;SDS011;10400;53.198;6.592;2022-07-25T10:17:04;4.68;;;1.70;;
20482;SDS011;10400;53.198;6.592;2022-07-25T10:19:46;1.98;;;1.33;;
20482;SDS011;10400;53.198;6.592;2022-07-25T10:22:13;5.18;;;1.63;;
20482;SDS011;10400;53.198;6.592;2022-07-25T10:24:42;4.80;;;1.42;;
20482;SDS011;10400;53.198;6.592;2022-07-25T10:27:09;4.20;;;1.50;;
20482;SDS011;10400;53.198;6.592;2022-07-25T10:29:38;4.90;;;1.73;;
20482;SDS011;10400;53.198;6.592;2022-07-25T10:32:05;7.80;;;1.67;;
20482;SDS011;10400;53.198;6.592;2022-07-25T10:34:31;2.85;;;1.77;;
20482;SDS011;10400;53.198;6.592;2022-07-25T10:37:07;3.00;;;1.60;;
20482;SDS011;10400;53.198;6.592;2022-07-25T10:39:38;14.30;;;2.00;;
20482;SDS011;10400;53.198;6.592;2022-07-25T10:42:05;2.33;;;1.73;;
20482;SDS011;10400;53.198;6.592;2022-07-25T10:44:42;5.22;;;1.75;;
20482;SDS011;10400;53.198;6.592;2022-07-25T10:47:15;3.75;;;1.85;;
20482;SDS011;10400;53.198;6.592;2022-07-25T10:49:43;4.18;;;1.48;;
20482;SDS011;10400;53.198;6.592;2022-07-25T10:52:15;5.47;;;1.92;;
20482;SDS011;10400;53.198;6.592;2022-07-25T10:54:51;6.10;;;2.45;;
20482;SDS011;10400;53.198;6.592;2022-07-25T10:57:20;7.75;;;1.98;;
20482;SDS011;10400;53.198;6.592;2022-07-25T10:59:46;4.15;;;2.00;;
20482;SDS011;10400;53.198;6.592;2022-07-25T11:02:12;4.30;;;2.00;;
20482;SDS011;10400;53.198;6.592;2022-07-25T11:04:42;9.70;;;2.60;;
20482;SDS011;10400;53.198;6.592;2022-07-25T11:07:10;4.45;;;2.17;;
20482;SDS011;10400;53.198;6.592;2022-07-25T11:09:40;4.30;;;2.03;;
20482;SDS011;10400;53.198;6.592;2022-07-25T11:12:07;7.47;;;2.75;;
20482;SDS011;10400;53.198;6.592;2022-07-25T11:14:38;6.93;;;2.67;;
20482;SDS011;10400;53.198;6.592;2022-07-25T11:19:34;7.07;;;2.28;;
20482;SDS011;10400;53.198;6.592;2022-07-25T11:22:00;3.13;;;1.90;;
20482;SDS011;10400;53.198;6.592;2022-07-25T11:24:40;5.82;;;2.22;;
20482;SDS011;10400;53.198;6.592;2022-07-25T11:27:08;5.28;;;2.30;;
20482;SDS011;10400;53.198;6.592;2022-07-25T11:29:36;7.60;;;2.25;;
20482;SDS011;10400;53.198;6.592;2022-07-25T11:32:06;8.70;;;2.53;;
20482;SDS011;10400;53.198;6.592;2022-07-25T11:34:40;7.88;;;2.40;;
20482;SDS011;10400;53.198;6.592;2022-07-25T11:37:09;7.85;;;2.17;;
20482;SDS011;10400;53.198;6.592;2022-07-25T11:39:37;8.23;;;2.40;;
20482;SDS011;10400;53.198;6.592;2022-07-25T11:42:05;10.77;;;2.38;;
20482;SDS011;10400;53.198;6.592;2022-07-25T11:44:34;9.27;;;2.17;;
20482;SDS011;10400;53.198;6.592;2022-07-25T11:47:03;6.45;;;2.15;;
20482;SDS011;10400;53.198;6.592;2022-07-25T11:49:30;5.13;;;1.92;;
20482;SDS011;10400;53.198;6.592;2022-07-25T11:51:55;5.30;;;1.80;;
20482;SDS011;10400;53.198;6.592;2022-07-25T11:54:21;6.30;;;1.95;;
20482;SDS011;10400;53.198;6.592;2022-07-25T11:56:47;6.57;;;1.83;;
20482;SDS011;10400;53.198;6.592;2022-07-25T11:59:13;6.60;;;2.15;;
20482;SDS011;10400;53.198;6.592;2022-07-25T12:01:39;10.13;;;2.42;;
20482;SDS011;10400;53.198;6.592;2022-07-25T12:04:14;5.97;;;1.90;;
20482;SDS011;10400;53.198;6.592;2022-07-25T12:06:42;11.15;;;2.15;;
20482;SDS011;10400;53.198;6.592;2022-07-25T12:09:10;4.88;;;2.10;;
20482;SDS011;10400;53.198;6.592;2022-07-25T12:11:40;10.68;;;2.10;;
20482;SDS011;10400;53.198;6.592;2022-07-25T12:14:06;9.25;;;2.25;;
20482;SDS011;10400;53.198;6.592;2022-07-25T12:16:32;7.03;;;2.60;;
20482;SDS011;10400;53.198;6.592;2022-07-25T12:18:58;11.82;;;2.25;;
20482;SDS011;10400;53.198;6.592;2022-07-25T12:21:24;8.48;;;1.92;;
20482;SDS011;10400;53.198;6.592;2022-07-25T12:23:51;6.22;;;1.90;;
20482;SDS011;10400;53.198;6.592;2022-07-25T12:26:17;9.73;;;2.25;;
20482;SDS011;10400;53.198;6.592;2022-07-25T12:28:43;13.43;;;2.63;;
20482;SDS011;10400;53.198;6.592;2022-07-25T12:31:08;6.10;;;2.05;;
20482;SDS011;10400;53.198;6.592;2022-07-25T12:33:34;6.97;;;2.13;;
20482;SDS011;10400;53.198;6.592;2022-07-25T12:36:00;9.90;;;1.90;;
20482;SDS011;10400;53.198;6.592;2022-07-25T12:38:27;5.22;;;1.77;;
20482;SDS011;10400;53.198;6.592;2022-07-25T12:40:53;5.30;;;1.90;;
20482;SDS011;10400;53.198;6.592;2022-07-25T12:43:19;7.20;;;1.67;;
20482;SDS011;10400;53.198;6.592;2022-07-25T12:45:45;4.97;;;1.50;;
20482;SDS011;10400;53.198;6.592;2022-07-25T12:48:11;3.55;;;1.60;;
20482;SDS011;10400;53.198;6.592;2022-07-25T12:50:38;7.03;;;1.67;;
20482;SDS011;10400;53.198;6.592;2022-07-25T12:53:04;7.57;;;2.00;;
20482;SDS011;10400;53.198;6.592;2022-07-25T12:55:30;8.95;;;1.83;;
20482;SDS011;10400;53.198;6.592;2022-07-25T12:57:55;7.43;;;1.77;;
20482;SDS011;10400;53.198;6.592;2022-07-25T13:00:21;6.47;;;1.70;;
20482;SDS011;10400;53.198;6.592;2022-07-25T13:02:48;8.95;;;1.80;;
20482;SDS011;10400;53.198;6.592;2022-07-25T13:05:16;5.50;;;1.85;;
20482;SDS011;10400;53.198;6.592;2022-07-25T13:07:42;9.02;;;1.90;;
20482;SDS011;10400;53.198;6.592;2022-07-25T13:10:08;6.97;;;1.80;;
20482;SDS011;10400;53.198;6.592;2022-07-25T13:12:34;7.85;;;1.98;;
20482;SDS011;10400;53.198;6.592;2022-07-25T13:15:00;5.22;;;1.60;;
20482;SDS011;10400;53.198;6.592;2022-07-25T13:17:26;7.30;;;1.75;;
20482;SDS011;10400;53.198;6.592;2022-07-25T13:19:51;9.48;;;1.90;;
20482;SDS011;10400;53.198;6.592;2022-07-25T13:22:17;5.53;;;1.90;;
20482;SDS011;10400;53.198;6.592;2022-07-25T13:24:43;9.88;;;1.88;;
20482;SDS011;10400;53.198;6.592;2022-07-25T13:27:09;8.02;;;1.75;;
20482;SDS011;10400;53.198;6.592;2022-07-25T13:29:34;6.85;;;1.77;;
20482;SDS011;10400;53.198;6.592;2022-07-25T13:32:00;9.73;;;1.90;;
20482;SDS011;10400;53.198;6.592;2022-07-25T13:34:26;9.27;;;1.80;;
20482;SDS011;10400;53.198;6.592;2022-07-25T13:36:52;6.15;;;1.92;;
20482;SDS011;10400;53.198;6.592;2022-07-25T13:39:17;10.50;;;2.10;;
20482;SDS011;10400;53.198;6.592;2022-07-25T13:41:46;5.97;;;2.05;;
20482;SDS011;10400;53.198;6.592;2022-07-25T13:44:12;4.88;;;1.80;;
20482;SDS011;10400;53.198;6.592;2022-07-25T13:46:39;4.65;;;2.10;;
20482;SDS011;10400;53.198;6.592;2022-07-25T13:49:05;4.32;;;1.58;;
20482;SDS011;10400;53.198;6.592;2022-07-25T13:51:31;9.30;;;1.92;;
20482;SDS011;10400;53.198;6.592;2022-07-25T13:53:57;9.18;;;2.00;;
20482;SDS011;10400;53.198;6.592;2022-07-25T13:56:22;10.25;;;2.25;;
20482;SDS011;10400;53.198;6.592;2022-07-25T13:58:48;6.63;;;2.20;;
20482;SDS011;10400;53.198;6.592;2022-07-25T14:01:13;9.13;;;2.10;;
20482;SDS011;10400;53.198;6.592;2022-07-25T14:03:39;10.88;;;2.20;;
20482;SDS011;10400;53.198;6.592;2022-07-25T14:06:07;10.27;;;2.40;;
20482;SDS011;10400;53.198;6.592;2022-07-25T14:08:36;12.55;;;2.67;;
20482;SDS011;10400;53.198;6.592;2022-07-25T14:11:04;7.80;;;2.60;;
20482;SDS011;10400;53.198;6.592;2022-07-25T14:13:30;7.18;;;2.13;;
20482;SDS011;10400;53.198;6.592;2022-07-25T14:15:57;7.72;;;2.50;;
20482;SDS011;10400;53.198;6.592;2022-07-25T14:18:23;6.10;;;2.10;;
20482;SDS011;10400;53.198;6.592;2022-07-25T14:20:49;12.25;;;2.42;;
20482;SDS011;10400;53.198;6.592;2022-07-25T14:23:15;6.00;;;2.22;;
20482;SDS011;10400;53.198;6.592;2022-07-25T14:25:41;8.93;;;2.40;;
20482;SDS011;10400;53.198;6.592;2022-07-25T14:28:07;8.20;;;2.47;;
20482;SDS011;10400;53.198;6.592;2022-07-25T14:30:33;8.27;;;1.92;;
20482;SDS011;10400;53.198;6.592;2022-07-25T14:32:58;6.40;;;2.20;;
20482;SDS011;10400;53.198;6.592;2022-07-25T14:35:24;5.13;;;1.70;;
20482;SDS011;10400;53.198;6.592;2022-07-25T14:37:50;9.02;;;2.00;;
20482;SDS011;10400;53.198;6.592;2022-07-25T14:40:16;8.02;;;2.30;;
20482;SDS011;10400;53.198;6.592;2022-07-25T14:42:42;8.18;;;2.20;;
20482;SDS011;10400;53.198;6.592;2022-07-25T14:45:08;7.63;;;1.88;;
20482;SDS011;10400;53.198;6.592;2022-07-25T14:47:35;10.20;;;2.05;;
20482;SDS011;10400;53.198;6.592;2022-07-25T14:50:01;5.75;;;2.00;;
20482;SDS011;10400;53.198;6.592;2022-07-25T14:52:27;17.35;;;2.10;;
20482;SDS011;10400;53.198;6.592;2022-07-25T14:54:53;9.15;;;1.92;;